createdAt,value
2024-05-09T00:00:39.703Z,0.00
2024-05-09T00:01:36.374Z,0.00
2024-05-09T00:02:36.395Z,0.00
2024-05-09T00:03:36.363Z,0.00
2024-05-09T00:04:36.353Z,0.00
2024-05-09T00:05:37.028Z,0.00
2024-05-09T00:06:36.297Z,0.00
2024-05-09T00:07:36.310Z,0.00
2024-05-09T00:08:36.383Z,0.00
2024-05-09T00:09:36.282Z,0.00
2024-05-09T00:10:38.623Z,0.00
2024-05-09T00:11:36.320Z,0.00
2024-05-09T00:12:36.292Z,0.00
2024-05-09T00:13:36.280Z,0.00
2024-05-09T00:14:36.291Z,0.00
2024-05-09T00:15:36.803Z,0.00
2024-05-09T00:16:36.253Z,0.00
2024-05-09T00:17:36.342Z,0.00
2024-05-09T00:18:36.368Z,0.00
2024-05-09T00:19:36.285Z,0.00
2024-05-09T00:20:39.699Z,0.00
2024-05-09T00:21:36.213Z,0.00
2024-05-09T00:22:36.210Z,0.00
2024-05-09T00:23:36.291Z,0.00
2024-05-09T00:24:36.195Z,0.00
2024-05-09T00:25:36.203Z,0.00
2024-05-09T00:26:36.295Z,0.00
2024-05-09T00:27:36.197Z,0.00
2024-05-09T00:28:36.223Z,0.00
2024-05-09T00:29:36.249Z,0.00
2024-05-09T00:30:37.300Z,0.00
2024-05-09T00:31:36.158Z,0.00
2024-05-09T00:32:36.446Z,0.00
2024-05-09T00:33:36.218Z,0.00
2024-05-09T00:34:36.167Z,0.00
2024-05-09T00:35:36.326Z,0.00
2024-05-09T00:36:36.134Z,0.00
2024-05-09T00:37:36.123Z,0.00
2024-05-09T00:38:36.245Z,0.00
2024-05-09T00:39:36.123Z,0.00
2024-05-09T00:40:39.900Z,0.00
2024-05-09T00:41:37.303Z,0.00
2024-05-09T00:42:36.115Z,0.00
2024-05-09T00:43:36.091Z,0.00
2024-05-09T00:44:36.150Z,0.00
2024-05-09T00:45:36.275Z,0.00
2024-05-09T00:46:36.112Z,0.00
2024-05-09T00:47:36.249Z,0.00
2024-05-09T00:48:36.223Z,0.00
2024-05-09T00:49:36.195Z,0.00
2024-05-09T00:50:37.628Z,0.00
2024-05-09T00:51:36.051Z,0.00
2024-05-09T00:52:36.039Z,0.00
2024-05-09T00:53:36.075Z,0.00
2024-05-09T00:54:36.035Z,0.00
2024-05-09T00:55:36.059Z,0.00
2024-05-09T00:56:36.075Z,0.00
2024-05-09T00:57:36.010Z,0.00
2024-05-09T00:58:36.007Z,0.00
2024-05-09T00:59:36.091Z,0.00
2024-05-09T01:00:39.723Z,0.00
2024-05-09T01:01:37.170Z,0.00
2024-05-09T01:02:36.086Z,0.00
2024-05-09T01:03:36.129Z,0.00
2024-05-09T01:04:36.068Z,0.00
2024-05-09T01:05:36.067Z,0.00
2024-05-09T01:06:35.969Z,0.00
2024-05-09T01:07:35.991Z,0.00
2024-05-09T01:08:36.070Z,0.00
2024-05-09T01:09:35.951Z,0.00
2024-05-09T01:10:36.639Z,0.00
2024-05-09T01:11:36.054Z,0.00
2024-05-09T01:12:35.995Z,0.00
2024-05-09T01:13:35.949Z,0.00
2024-05-09T01:14:35.939Z,0.00
2024-05-09T01:15:36.108Z,0.00
2024-05-09T01:16:35.903Z,0.00
2024-05-09T01:17:36.043Z,0.00
2024-05-09T01:18:36.022Z,0.00
2024-05-09T01:19:35.958Z,0.00
2024-05-09T01:20:41.753Z,0.00
2024-05-09T01:21:36.890Z,0.00
2024-05-09T01:22:35.880Z,0.00
2024-05-09T01:23:35.935Z,0.00
2024-05-09T01:24:35.902Z,0.00
2024-05-09T01:25:35.907Z,0.00
2024-05-09T01:26:35.873Z,0.00
2024-05-09T01:27:35.850Z,0.00
2024-05-09T01:28:35.838Z,0.00
2024-05-09T01:29:35.946Z,0.00
2024-05-09T01:30:37.521Z,0.00
2024-05-09T01:31:35.865Z,0.00
2024-05-09T01:32:35.919Z,0.00
2024-05-09T01:33:35.962Z,0.00
2024-05-09T01:34:35.838Z,0.00
2024-05-09T01:35:35.924Z,0.00
2024-05-09T01:36:35.821Z,0.00
2024-05-09T01:37:35.829Z,0.00
2024-05-09T01:38:35.875Z,0.00
2024-05-09T01:39:35.778Z,0.00
2024-05-09T01:40:38.922Z,0.00
2024-05-09T01:41:35.798Z,0.00
2024-05-09T01:42:35.766Z,0.00
2024-05-09T01:43:35.772Z,0.00
2024-05-09T01:44:35.775Z,0.00
2024-05-09T01:45:35.757Z,0.00
2024-05-09T01:46:35.739Z,0.00
2024-05-09T01:47:35.824Z,0.00
2024-05-09T01:48:35.808Z,0.00
2024-05-09T01:49:35.817Z,0.00
2024-05-09T01:50:39.881Z,0.00
2024-05-09T01:51:36.724Z,0.00
2024-05-09T01:52:35.709Z,0.00
2024-05-09T01:53:35.774Z,0.00
2024-05-09T01:54:35.723Z,0.00
2024-05-09T01:55:35.726Z,0.00
2024-05-09T01:56:35.763Z,0.00
2024-05-09T01:57:35.684Z,0.00
2024-05-09T01:58:35.684Z,0.00
2024-05-09T01:59:35.705Z,0.00
2024-05-09T02:00:40.110Z,0.00
2024-05-09T02:01:55.606Z,0.00
2024-05-09T02:02:36.717Z,0.00
2024-05-09T02:03:35.764Z,0.00
2024-05-09T02:04:35.727Z,0.00
2024-05-09T02:05:35.841Z,0.00
2024-05-09T02:06:35.661Z,0.00
2024-05-09T02:07:35.644Z,0.00
2024-05-09T02:08:35.779Z,0.00
2024-05-09T02:09:35.626Z,0.00
2024-05-09T02:10:35.618Z,0.00
2024-05-09T02:11:35.722Z,0.00
2024-05-09T02:12:35.635Z,0.00
2024-05-09T02:13:35.600Z,0.00
2024-05-09T02:14:35.676Z,0.00
2024-05-09T02:15:35.590Z,0.00
2024-05-09T02:16:35.579Z,0.00
2024-05-09T02:17:35.705Z,0.00
2024-05-09T02:18:35.623Z,0.00
2024-05-09T02:19:35.649Z,0.00
2024-05-09T02:20:36.899Z,0.00
2024-05-09T02:21:35.562Z,0.00
2024-05-09T02:22:35.599Z,0.00
2024-05-09T02:23:35.578Z,0.00
2024-05-09T02:24:35.574Z,0.00
2024-05-09T02:25:35.566Z,0.00
2024-05-09T02:26:35.560Z,0.00
2024-05-09T02:27:35.529Z,0.00
2024-05-09T02:28:35.542Z,0.00
2024-05-09T02:29:35.549Z,0.00
2024-05-09T02:30:40.000Z,0.00
2024-05-09T02:31:36.503Z,0.00
2024-05-09T02:32:35.690Z,0.00
2024-05-09T02:33:35.689Z,0.00
2024-05-09T02:34:35.566Z,0.00
2024-05-09T02:35:35.574Z,0.00
2024-05-09T02:36:35.476Z,0.00
2024-05-09T02:37:35.467Z,0.00
2024-05-09T02:38:35.585Z,0.00
2024-05-09T02:39:35.457Z,0.00
2024-05-09T02:40:38.286Z,0.00
2024-05-09T02:41:35.518Z,0.00
2024-05-09T02:42:35.443Z,0.00
2024-05-09T02:43:35.479Z,0.00
2024-05-09T02:44:35.449Z,0.00
2024-05-09T02:45:35.426Z,0.00
2024-05-09T02:46:35.433Z,0.00
2024-05-09T02:47:35.546Z,0.00
2024-05-09T02:48:35.481Z,0.00
2024-05-09T02:49:35.515Z,0.00
2024-05-09T02:50:39.029Z,0.00
2024-05-09T02:51:35.397Z,0.00
2024-05-09T02:52:35.424Z,0.00
2024-05-09T02:53:35.487Z,0.00
2024-05-09T02:54:35.380Z,0.00
2024-05-09T02:55:35.403Z,0.00
2024-05-09T02:56:35.459Z,0.00
2024-05-09T02:57:35.372Z,0.00
2024-05-09T02:58:35.363Z,0.00
2024-05-09T02:59:35.382Z,0.00
2024-05-09T03:00:39.633Z,0.00
2024-05-09T03:01:36.437Z,0.00
2024-05-09T03:02:35.471Z,0.00
2024-05-09T03:03:35.507Z,0.00
2024-05-09T03:04:35.336Z,0.00
2024-05-09T03:05:35.588Z,0.00
2024-05-09T03:06:35.339Z,0.00
2024-05-09T03:07:35.328Z,0.00
2024-05-09T03:08:35.375Z,0.00
2024-05-09T03:09:35.293Z,0.00
2024-05-09T03:10:37.696Z,0.00
2024-05-09T03:11:35.385Z,0.00
2024-05-09T03:12:37.973Z,0.00
2024-05-09T03:13:35.289Z,0.00
2024-05-09T03:14:35.339Z,0.00
2024-05-09T03:15:35.276Z,0.00
2024-05-09T03:16:35.272Z,0.00
2024-05-09T03:17:35.502Z,0.00
2024-05-09T03:18:35.339Z,0.00
2024-05-09T03:19:35.267Z,0.00
2024-05-09T03:20:36.405Z,0.00
2024-05-09T03:21:35.249Z,0.00
2024-05-09T03:22:35.230Z,0.00
2024-05-09T03:23:35.229Z,0.00
2024-05-09T03:24:35.204Z,0.00
2024-05-09T03:25:35.199Z,0.00
2024-05-09T03:26:35.298Z,0.00
2024-05-09T03:27:35.188Z,0.00
2024-05-09T03:28:35.189Z,0.00
2024-05-09T03:29:35.218Z,0.00
2024-05-09T03:30:40.527Z,0.00
2024-05-09T03:31:36.210Z,0.00
2024-05-09T03:32:35.323Z,0.00
2024-05-09T03:33:35.520Z,0.00
2024-05-09T03:34:35.152Z,0.00
2024-05-09T03:35:35.222Z,0.00
2024-05-09T03:36:35.149Z,0.00
2024-05-09T03:37:35.154Z,0.00
2024-05-09T03:38:35.313Z,0.00
2024-05-09T03:39:35.134Z,0.00
2024-05-09T03:40:35.133Z,0.00
2024-05-09T03:41:35.181Z,0.00
2024-05-09T03:42:35.124Z,0.00
2024-05-09T03:43:35.139Z,0.00
2024-05-09T03:44:35.163Z,0.00
2024-05-09T03:45:35.093Z,0.00
2024-05-09T03:46:35.089Z,0.00
2024-05-09T03:47:35.286Z,0.00
2024-05-09T03:48:35.117Z,0.00
2024-05-09T03:49:35.146Z,0.00
2024-05-09T03:50:36.331Z,0.00
2024-05-09T03:51:35.092Z,0.00
2024-05-09T03:52:35.044Z,0.00
2024-05-09T03:53:35.166Z,0.00
2024-05-09T03:54:35.065Z,0.00
2024-05-09T03:55:35.045Z,0.00
2024-05-09T03:56:35.094Z,0.00
2024-05-09T03:57:35.053Z,5.62
2024-05-09T03:58:35.028Z,5.62
2024-05-09T03:59:35.069Z,5.62
2024-05-09T04:00:38.607Z,5.62
2024-05-09T04:01:36.066Z,5.62
2024-05-09T04:02:35.089Z,5.62
2024-05-09T04:03:35.100Z,5.62
2024-05-09T04:04:35.105Z,5.62
2024-05-09T04:05:35.271Z,5.62
2024-05-09T04:06:34.998Z,5.62
2024-05-09T04:07:34.976Z,5.62
2024-05-09T04:08:35.089Z,5.62
2024-05-09T04:09:34.973Z,5.62
2024-05-09T04:10:35.535Z,5.62
2024-05-09T04:11:35.056Z,5.62
2024-05-09T04:12:34.987Z,5.62
2024-05-09T04:13:34.932Z,5.62
2024-05-09T04:14:35.017Z,5.62
2024-05-09T04:15:34.951Z,5.62
2024-05-09T04:16:34.916Z,5.62
2024-05-09T04:17:35.086Z,11.25
2024-05-09T04:18:35.032Z,11.25
2024-05-09T04:19:34.996Z,11.25
2024-05-09T04:20:39.022Z,11.25
2024-05-09T04:21:35.904Z,11.25
2024-05-09T04:22:34.892Z,11.25
2024-05-09T04:23:35.066Z,11.25
2024-05-09T04:24:34.884Z,11.25
2024-05-09T04:25:35.012Z,11.25
2024-05-09T04:26:34.940Z,11.25
2024-05-09T04:27:34.853Z,11.25
2024-05-09T04:28:34.873Z,11.25
2024-05-09T04:29:34.898Z,16.88
2024-05-09T04:30:39.042Z,16.88
2024-05-09T04:31:35.843Z,16.88
2024-05-09T04:32:35.006Z,16.88
2024-05-09T04:33:35.102Z,16.88
2024-05-09T04:34:34.973Z,16.88
2024-05-09T04:35:34.850Z,16.88
2024-05-09T04:36:34.812Z,16.88
2024-05-09T04:37:34.810Z,16.88
2024-05-09T04:38:34.922Z,16.88
2024-05-09T04:39:34.798Z,16.88
2024-05-09T04:40:36.755Z,16.88
2024-05-09T04:41:34.858Z,16.88
2024-05-09T04:42:34.771Z,16.88
2024-05-09T04:43:34.769Z,22.50
2024-05-09T04:44:34.778Z,22.50
2024-05-09T04:45:35.121Z,22.50
2024-05-09T04:46:34.761Z,22.50
2024-05-09T04:47:34.887Z,22.50
2024-05-09T04:48:34.805Z,22.50
2024-05-09T04:49:34.947Z,22.50
2024-05-09T04:50:38.246Z,22.50
2024-05-09T04:51:34.747Z,28.12
2024-05-09T04:52:34.725Z,28.12
2024-05-09T04:53:34.775Z,28.12
2024-05-09T04:54:36.576Z,28.12
2024-05-09T04:55:34.744Z,33.75
2024-05-09T04:56:34.772Z,33.75
2024-05-09T04:57:34.715Z,33.75
2024-05-09T04:58:34.718Z,33.75
2024-05-09T04:59:34.755Z,33.75
2024-05-09T05:00:37.373Z,39.38
2024-05-09T05:01:34.746Z,39.38
2024-05-09T05:02:34.754Z,39.38
2024-05-09T05:03:34.804Z,39.38
2024-05-09T05:04:34.687Z,39.38
2024-05-09T05:05:34.718Z,45.00
2024-05-09T05:06:34.690Z,45.00
2024-05-09T05:07:34.643Z,45.00
2024-05-09T05:08:34.722Z,45.00
2024-05-09T05:09:34.631Z,45.00
2024-05-09T05:10:36.577Z,45.00
2024-05-09T05:11:34.727Z,45.00
2024-05-09T05:12:34.818Z,45.00
2024-05-09T05:13:36.653Z,45.00
2024-05-09T05:14:34.646Z,45.00
2024-05-09T05:15:34.599Z,45.00
2024-05-09T05:16:34.589Z,45.00
2024-05-09T05:17:34.831Z,45.00
2024-05-09T05:18:34.674Z,50.62
2024-05-09T05:19:34.763Z,50.62
2024-05-09T05:20:34.741Z,50.62
2024-05-09T05:21:34.648Z,50.62
2024-05-09T05:22:34.559Z,56.25
2024-05-09T05:23:34.793Z,61.88
2024-05-09T05:24:34.560Z,56.25
2024-05-09T05:25:34.565Z,61.88
2024-05-09T05:26:34.764Z,61.88
2024-05-09T05:27:34.532Z,61.88
2024-05-09T05:28:34.543Z,61.88
2024-05-09T05:29:34.658Z,61.88
2024-05-09T05:30:35.190Z,61.88
2024-05-09T05:31:34.538Z,61.88
2024-05-09T05:32:34.730Z,67.50
2024-05-09T05:33:34.659Z,67.50
2024-05-09T05:34:34.491Z,61.88
2024-05-09T05:35:34.793Z,67.50
2024-05-09T05:36:34.481Z,61.88
2024-05-09T05:37:34.466Z,61.88
2024-05-09T05:38:34.549Z,61.88
2024-05-09T05:39:34.500Z,61.88
2024-05-09T05:40:37.221Z,61.88
2024-05-09T05:41:34.544Z,61.88
2024-05-09T05:42:34.441Z,61.88
2024-05-09T05:43:34.438Z,61.88
2024-05-09T05:44:34.457Z,61.88
2024-05-09T05:45:34.451Z,61.88
2024-05-09T05:46:34.419Z,61.88
2024-05-09T05:47:34.729Z,67.50
2024-05-09T05:48:34.558Z,67.50
2024-05-09T05:49:34.485Z,73.12
2024-05-09T05:50:37.000Z,73.12
2024-05-09T05:51:34.410Z,73.12
2024-05-09T05:52:34.390Z,73.12
2024-05-09T05:53:34.725Z,78.75
2024-05-09T05:54:34.375Z,84.38
2024-05-09T05:55:34.405Z,84.38
2024-05-09T05:56:34.439Z,90.00
2024-05-09T05:57:34.372Z,90.00
2024-05-09T05:58:34.351Z,90.00
2024-05-09T05:59:34.519Z,90.00
2024-05-09T06:00:38.436Z,90.00
2024-05-09T06:01:35.419Z,90.00
2024-05-09T06:02:34.470Z,90.00
2024-05-09T06:03:34.355Z,95.62
2024-05-09T06:04:34.426Z,95.62
2024-05-09T06:05:34.376Z,95.62
2024-05-09T06:06:34.339Z,95.62
2024-05-09T06:07:34.313Z,101.25
2024-05-09T06:08:34.387Z,101.25
2024-05-09T06:09:34.301Z,112.50
2024-05-09T06:10:38.528Z,123.75
2024-05-09T06:11:35.369Z,129.38
2024-05-09T06:12:34.280Z,140.62
2024-05-09T06:13:34.284Z,151.88
2024-05-09T06:14:34.323Z,174.38
2024-05-09T06:15:34.432Z,157.50
2024-05-09T06:16:34.265Z,163.12
2024-05-09T06:17:34.388Z,163.12
2024-05-09T06:18:34.347Z,163.12
2024-05-09T06:19:34.302Z,168.75
2024-05-09T06:20:37.124Z,163.12
2024-05-09T06:21:34.284Z,163.12
2024-05-09T06:22:34.214Z,191.25
2024-05-09T06:23:34.336Z,253.12
2024-05-09T06:24:34.210Z,241.88
2024-05-09T06:25:34.214Z,213.75
2024-05-09T06:26:34.256Z,275.62
2024-05-09T06:27:34.208Z,331.88
2024-05-09T06:28:34.179Z,298.12
2024-05-09T06:29:34.193Z,253.12
2024-05-09T06:30:38.530Z,241.88
2024-05-09T06:31:35.168Z,270.00
2024-05-09T06:32:34.334Z,264.38
2024-05-09T06:33:34.642Z,337.50
2024-05-09T06:34:34.204Z,303.75
2024-05-09T06:35:34.401Z,315.00
2024-05-09T06:36:34.138Z,309.38
2024-05-09T06:37:34.128Z,315.00
2024-05-09T06:38:34.300Z,292.50
2024-05-09T06:39:34.130Z,258.75
2024-05-09T06:40:37.911Z,281.25
2024-05-09T06:41:35.140Z,303.75
2024-05-09T06:42:34.093Z,309.38
2024-05-09T06:43:34.104Z,281.25
2024-05-09T06:44:34.160Z,303.75
2024-05-09T06:45:34.069Z,281.25
2024-05-09T06:46:34.071Z,270.00
2024-05-09T06:47:34.259Z,326.25
2024-05-09T06:48:34.304Z,281.25
2024-05-09T06:49:34.113Z,281.25
2024-05-09T06:50:37.772Z,309.38
2024-05-09T06:51:35.062Z,298.12
2024-05-09T06:52:34.020Z,298.12
2024-05-09T06:53:34.188Z,309.38
2024-05-09T06:54:34.040Z,348.75
2024-05-09T06:55:34.023Z,365.62
2024-05-09T06:56:34.110Z,433.12
2024-05-09T06:57:34.003Z,354.38
2024-05-09T06:58:33.976Z,348.75
2024-05-09T06:59:33.999Z,371.25
2024-05-09T07:00:38.671Z,472.50
2024-05-09T07:01:35.017Z,506.25
2024-05-09T07:02:34.149Z,506.25
2024-05-09T07:03:34.059Z,506.25
2024-05-09T07:04:34.144Z,517.50
2024-05-09T07:05:34.054Z,568.12
2024-05-09T07:06:33.942Z,416.25
2024-05-09T07:07:33.922Z,523.12
2024-05-09T07:08:34.087Z,596.25
2024-05-09T07:09:33.900Z,601.88
2024-05-09T07:10:35.553Z,540.00
2024-05-09T07:11:33.991Z,511.88
2024-05-09T07:12:34.045Z,562.50
2024-05-09T07:13:33.906Z,545.62
2024-05-09T07:14:34.750Z,551.25
2024-05-09T07:15:33.857Z,556.88
2024-05-09T07:16:33.852Z,556.88
2024-05-09T07:17:33.883Z,556.88
2024-05-09T07:18:33.924Z,562.50
2024-05-09T07:19:33.883Z,579.38
2024-05-09T07:20:35.118Z,635.62
2024-05-09T07:21:33.804Z,691.88
2024-05-09T07:22:33.795Z,714.38
2024-05-09T07:23:33.980Z,697.50
2024-05-09T07:24:33.798Z,613.12
2024-05-09T07:25:33.766Z,556.88
2024-05-09T07:26:33.891Z,540.00
2024-05-09T07:27:33.745Z,540.00
2024-05-09T07:28:33.754Z,540.00
2024-05-09T07:29:36.272Z,534.38
2024-05-09T07:30:34.824Z,528.75
2024-05-09T07:31:33.753Z,523.12
2024-05-09T07:32:33.984Z,523.12
2024-05-09T07:33:33.783Z,523.12
2024-05-09T07:34:33.794Z,523.12
2024-05-09T07:35:33.860Z,523.12
2024-05-09T07:36:33.698Z,523.12
2024-05-09T07:37:33.699Z,523.12
2024-05-09T07:38:33.706Z,523.12
2024-05-09T07:39:33.681Z,523.12
2024-05-09T07:40:36.531Z,523.12
2024-05-09T07:41:33.754Z,517.50
2024-05-09T07:42:33.628Z,517.50
2024-05-09T07:43:33.628Z,517.50
2024-05-09T07:44:33.638Z,517.50
2024-05-09T07:50:34.275Z,517.50
2024-05-09T07:52:23.089Z,511.88
2024-05-09T07:53:33.195Z,511.88
2024-05-09T07:53:42.051Z,511.88
2024-05-09T07:54:34.684Z,506.25
2024-05-09T07:55:33.592Z,489.38
2024-05-09T07:56:33.636Z,495.00
2024-05-09T07:57:33.648Z,495.00
2024-05-09T07:58:33.529Z,506.25
2024-05-09T07:59:37.100Z,506.25
2024-05-09T08:00:33.643Z,511.88
2024-05-09T08:01:33.654Z,511.88
2024-05-09T08:02:33.733Z,506.25
2024-05-09T08:03:33.753Z,506.25
2024-05-09T08:04:33.600Z,506.25
2024-05-09T08:05:33.664Z,506.25
2024-05-09T08:06:33.477Z,506.25
2024-05-09T08:07:33.451Z,506.25
2024-05-09T08:08:33.448Z,506.25
2024-05-09T08:09:34.676Z,506.25
2024-05-09T08:10:33.459Z,506.25
2024-05-09T08:11:33.499Z,511.88
2024-05-09T08:12:33.437Z,517.50
2024-05-09T08:13:33.448Z,523.12
2024-05-09T08:14:33.428Z,528.75
2024-05-09T08:15:33.443Z,528.75
2024-05-09T08:16:33.474Z,523.12
2024-05-09T08:17:33.498Z,528.75
2024-05-09T08:18:33.684Z,528.75
2024-05-09T08:19:33.419Z,528.75
2024-05-09T08:20:35.313Z,534.38
2024-05-09T08:21:33.394Z,540.00
2024-05-09T08:22:33.373Z,551.25
2024-05-09T08:23:33.361Z,556.88
2024-05-09T08:24:33.394Z,573.75
2024-05-09T08:25:33.326Z,590.62
2024-05-09T08:26:33.361Z,618.75
2024-05-09T08:27:33.338Z,658.12
2024-05-09T08:28:33.315Z,714.38
2024-05-09T08:29:33.330Z,793.12
2024-05-09T08:30:37.013Z,821.25
2024-05-09T08:31:33.355Z,798.75
2024-05-09T08:32:33.413Z,759.38
2024-05-09T08:33:33.520Z,708.75
2024-05-09T08:34:33.314Z,686.25
2024-05-09T08:35:33.260Z,731.25
2024-05-09T08:36:33.297Z,787.50
2024-05-09T08:37:38.676Z,838.12
2024-05-09T08:38:34.240Z,883.12
2024-05-09T08:39:33.351Z,883.12
2024-05-09T08:40:35.988Z,939.38
2024-05-09T08:41:33.221Z,1023.75
2024-05-09T08:42:33.241Z,1029.38
2024-05-09T08:43:33.212Z,1018.12
2024-05-09T08:44:33.202Z,1046.25
2024-05-09T08:45:33.275Z,1080.00
2024-05-09T08:46:33.276Z,1096.88
2024-05-09T08:47:33.227Z,1091.25
2024-05-09T08:48:33.458Z,1029.38
2024-05-09T08:49:33.179Z,939.38
2024-05-09T08:50:38.542Z,787.50
2024-05-09T08:51:34.161Z,720.00
2024-05-09T08:52:33.148Z,652.50
2024-05-09T08:53:33.128Z,596.25
2024-05-09T08:54:33.188Z,579.38
2024-05-09T08:55:33.122Z,596.25
2024-05-09T08:56:33.197Z,607.50
2024-05-09T08:57:33.121Z,596.25
2024-05-09T08:58:33.121Z,562.50
2024-05-09T08:59:33.093Z,523.12
2024-05-09T09:00:36.996Z,523.12
2024-05-09T09:01:33.233Z,517.50
2024-05-09T09:02:33.278Z,523.12
2024-05-09T09:03:33.381Z,523.12
2024-05-09T09:04:33.156Z,545.62
2024-05-09T09:05:33.175Z,562.50
2024-05-09T09:06:33.090Z,568.12
2024-05-09T09:07:33.067Z,556.88
2024-05-09T09:08:33.089Z,556.88
2024-05-09T09:09:33.097Z,579.38
2024-05-09T09:10:33.564Z,601.88
2024-05-09T09:11:33.035Z,607.50
2024-05-09T09:12:33.080Z,596.25
2024-05-09T09:13:33.033Z,573.75
2024-05-09T09:14:33.021Z,551.25
2024-05-09T09:15:33.336Z,534.38
2024-05-09T09:16:33.035Z,528.75
2024-05-09T09:17:33.028Z,517.50
2024-05-09T09:18:33.297Z,517.50
2024-05-09T09:19:33.072Z,506.25
2024-05-09T09:20:36.540Z,489.38
2024-05-09T09:21:33.003Z,472.50
2024-05-09T09:22:32.940Z,444.38
2024-05-09T09:23:32.966Z,427.50
2024-05-09T09:24:32.957Z,421.88
2024-05-09T09:25:32.928Z,421.88
2024-05-09T09:26:32.928Z,405.00
2024-05-09T09:27:32.944Z,393.75
2024-05-09T09:28:32.914Z,382.50
2024-05-09T09:29:32.895Z,371.25
2024-05-09T09:30:37.317Z,360.00
2024-05-09T09:31:34.174Z,354.38
2024-05-09T09:32:33.039Z,343.12
2024-05-09T09:33:33.382Z,331.88
2024-05-09T09:34:32.999Z,331.88
2024-05-09T09:35:32.974Z,326.25
2024-05-09T09:36:32.908Z,326.25
2024-05-09T09:37:32.821Z,320.62
2024-05-09T09:38:32.828Z,315.00
2024-05-09T09:39:32.834Z,315.00
2024-05-09T09:40:34.950Z,309.38
2024-05-09T09:41:32.802Z,309.38
2024-05-09T09:42:32.827Z,303.75
2024-05-09T09:43:32.808Z,298.12
2024-05-09T09:44:33.043Z,292.50
2024-05-09T09:45:32.797Z,281.25
2024-05-09T09:46:32.932Z,281.25
2024-05-09T09:47:32.833Z,275.62
2024-05-09T09:48:32.816Z,275.62
2024-05-09T09:49:32.845Z,270.00
2024-05-09T09:50:34.825Z,264.38
2024-05-09T09:51:32.790Z,258.75
2024-05-09T09:52:32.778Z,258.75
2024-05-09T09:53:32.720Z,247.50
2024-05-09T09:54:32.739Z,241.88
2024-05-09T09:55:32.694Z,230.62
2024-05-09T09:56:32.716Z,225.00
2024-05-09T09:57:32.762Z,219.38
2024-05-09T09:58:32.738Z,213.75
2024-05-09T09:59:32.668Z,208.12
2024-05-09T10:00:33.804Z,208.12
2024-05-09T10:01:32.813Z,208.12
2024-05-09T10:02:32.834Z,202.50
2024-05-09T10:03:32.875Z,202.50
2024-05-09T10:04:32.791Z,202.50
2024-05-09T10:05:32.700Z,196.88
2024-05-09T10:06:32.692Z,191.25
2024-05-09T10:07:32.620Z,191.25
2024-05-09T10:08:32.619Z,191.25
2024-05-09T10:09:32.625Z,185.62
2024-05-09T10:10:33.342Z,185.62
2024-05-09T10:11:37.034Z,185.62
2024-05-09T10:12:33.742Z,185.62
2024-05-09T10:13:32.663Z,185.62
2024-05-09T10:14:32.573Z,185.62
2024-05-09T10:15:32.643Z,180.00
2024-05-09T10:16:32.620Z,180.00
2024-05-09T10:17:32.799Z,180.00
2024-05-09T10:18:34.385Z,180.00
2024-05-09T10:19:32.698Z,180.00
2024-05-09T10:20:33.077Z,180.00
2024-05-09T10:21:32.558Z,180.00
2024-05-09T10:22:32.533Z,180.00
2024-05-09T10:23:32.722Z,180.00
2024-05-09T10:24:32.559Z,180.00
2024-05-09T10:25:32.683Z,180.00
2024-05-09T10:26:32.519Z,180.00
2024-05-09T10:27:32.505Z,180.00
2024-05-09T10:28:32.471Z,180.00
2024-05-09T10:29:32.478Z,180.00
2024-05-09T10:30:35.997Z,180.00
2024-05-09T10:31:32.578Z,174.38
2024-05-09T10:32:32.630Z,174.38
2024-05-09T10:33:32.652Z,174.38
2024-05-09T10:34:32.669Z,174.38
2024-05-09T10:35:32.415Z,180.00
2024-05-09T10:36:32.456Z,180.00
2024-05-09T10:37:32.489Z,180.00
2024-05-09T10:38:32.406Z,180.00
2024-05-09T10:39:32.445Z,180.00
2024-05-09T10:40:32.533Z,180.00
2024-05-09T10:41:32.375Z,174.38
2024-05-09T10:42:32.470Z,174.38
2024-05-09T10:43:32.364Z,174.38
2024-05-09T10:44:32.368Z,174.38
2024-05-09T10:45:32.401Z,174.38
2024-05-09T10:46:32.341Z,168.75
2024-05-09T10:47:32.384Z,168.75
2024-05-09T10:48:32.547Z,168.75
2024-05-09T10:49:32.434Z,168.75
2024-05-09T10:50:34.437Z,168.75
2024-05-09T10:51:32.361Z,168.75
2024-05-09T10:52:32.301Z,163.12
2024-05-09T10:53:32.315Z,163.12
2024-05-09T10:54:32.331Z,163.12
2024-05-09T10:55:32.343Z,163.12
2024-05-09T10:56:32.299Z,163.12
2024-05-09T10:57:32.298Z,163.12
2024-05-09T10:58:32.278Z,163.12
2024-05-09T10:59:32.286Z,163.12
2024-05-09T11:00:36.030Z,163.12
2024-05-09T11:01:32.410Z,163.12
2024-05-09T11:02:32.394Z,163.12
2024-05-09T11:03:32.432Z,168.75
2024-05-09T11:04:32.258Z,168.75
2024-05-09T11:05:32.380Z,163.12
2024-05-09T11:06:32.314Z,163.12
2024-05-09T11:07:32.279Z,168.75
2024-05-09T11:08:35.212Z,168.75
2024-05-09T11:09:32.344Z,168.75
2024-05-09T11:10:34.332Z,168.75
2024-05-09T11:11:32.193Z,163.12
2024-05-09T11:12:32.286Z,163.12
2024-05-09T11:13:32.329Z,163.12
2024-05-09T11:14:32.145Z,163.12
2024-05-09T11:15:32.177Z,157.50
2024-05-09T11:16:32.195Z,157.50
2024-05-09T11:17:32.188Z,151.88
2024-05-09T11:18:36.206Z,151.88
2024-05-09T11:19:33.220Z,140.62
2024-05-09T11:20:35.022Z,118.12
2024-05-09T11:21:32.106Z,151.88
2024-05-09T11:22:32.086Z,151.88
2024-05-09T11:23:32.140Z,151.88
2024-05-09T11:24:32.087Z,151.88
2024-05-09T11:25:32.070Z,157.50
2024-05-09T11:26:32.060Z,157.50
2024-05-09T11:27:32.100Z,157.50
2024-05-09T11:28:32.042Z,163.12
2024-05-09T11:29:32.046Z,163.12
2024-05-09T11:30:32.742Z,168.75
2024-05-09T11:31:32.152Z,168.75
2024-05-09T11:32:32.107Z,168.75
2024-05-09T11:33:32.120Z,168.75
2024-05-09T11:34:32.130Z,168.75
2024-05-09T11:35:31.988Z,168.75
2024-05-09T11:36:32.096Z,129.38
2024-05-09T11:37:34.601Z,123.75
2024-05-09T11:38:31.976Z,118.12
2024-05-09T11:39:32.065Z,118.12
2024-05-09T11:41:31.944Z,146.25
2024-05-09T11:42:31.955Z,123.75
2024-05-09T11:43:32.109Z,118.12
2024-05-09T11:44:31.930Z,118.12
2024-05-09T11:45:32.022Z,118.12
2024-05-09T11:46:31.912Z,118.12
2024-05-09T11:47:32.052Z,135.00
2024-05-09T11:48:32.366Z,118.12
2024-05-09T11:49:32.021Z,118.12
2024-05-09T11:50:35.477Z,118.12
2024-05-09T11:51:31.966Z,123.75
2024-05-09T11:52:31.870Z,163.12
2024-05-09T11:53:31.877Z,163.12
2024-05-09T11:54:31.875Z,157.50
2024-05-09T11:55:31.941Z,157.50
2024-05-09T11:56:31.877Z,157.50
2024-05-09T11:57:31.870Z,163.12
2024-05-09T11:58:31.887Z,157.50
2024-05-09T11:59:31.828Z,157.50
2024-05-09T12:00:36.709Z,157.50
2024-05-09T12:01:32.951Z,157.50
2024-05-09T12:02:31.922Z,157.50
2024-05-09T12:03:31.948Z,157.50
2024-05-09T12:04:32.009Z,157.50
2024-05-09T12:05:31.973Z,157.50
2024-05-09T12:06:31.813Z,157.50
2024-05-09T12:07:31.843Z,157.50
2024-05-09T12:08:31.760Z,151.88
2024-05-09T12:09:31.778Z,157.50
2024-05-09T12:10:34.458Z,157.50
2024-05-09T12:11:31.764Z,157.50
2024-05-09T12:12:32.954Z,157.50
2024-05-09T12:13:31.809Z,157.50
2024-05-09T12:14:31.710Z,157.50
2024-05-09T12:15:31.743Z,151.88
2024-05-09T12:16:32.055Z,151.88
2024-05-09T12:17:31.824Z,151.88
2024-05-09T12:18:31.773Z,151.88
2024-05-09T12:19:31.723Z,146.25
2024-05-09T12:21:31.718Z,146.25
2024-05-09T12:22:31.660Z,151.88
2024-05-09T12:23:31.675Z,151.88
2024-05-09T12:24:31.653Z,106.88
2024-05-09T12:25:31.637Z,118.12
2024-05-09T12:26:31.646Z,146.25
2024-05-09T12:27:31.658Z,112.50
2024-05-09T12:28:31.634Z,123.75
2024-05-09T12:29:31.615Z,106.88
2024-05-09T12:30:37.490Z,101.25
2024-05-09T12:31:32.761Z,101.25
2024-05-09T12:32:31.646Z,101.25
2024-05-09T12:33:31.636Z,106.88
2024-05-09T12:34:31.689Z,151.88
2024-05-09T12:35:31.577Z,151.88
2024-05-09T12:36:31.609Z,151.88
2024-05-09T12:37:31.552Z,151.88
2024-05-09T12:38:31.554Z,151.88
2024-05-09T12:39:31.602Z,151.88
2024-05-09T12:40:36.401Z,151.88
2024-05-09T12:41:32.548Z,151.88
2024-05-09T12:42:33.710Z,151.88
2024-05-09T12:43:31.616Z,146.25
2024-05-09T12:44:31.495Z,146.25
2024-05-09T12:45:31.646Z,146.25
2024-05-09T12:46:31.548Z,135.00
2024-05-09T12:47:31.527Z,106.88
2024-05-09T12:48:31.618Z,112.50
2024-05-09T12:49:31.620Z,129.38
2024-05-09T12:50:33.586Z,101.25
2024-05-09T12:51:31.514Z,101.25
2024-05-09T12:52:31.441Z,101.25
2024-05-09T12:53:31.432Z,101.25
2024-05-09T12:54:31.459Z,106.88